Time;durP1;ratioP1;P1;durP2;ratioP2;P2;SDS_P1;SDS_P2;PMS_P1;PMS_P2;Temp;Humidity;BMP_temperature;BMP_pressure;BME280_temperature;BME280_humidity;BME280_pressure;Samples;Min_cycle;Max_cycle;Signal;HPM_P1;HPM_P2
2023/08/05 00:00:48;;;;;;;6.80;4.55;;;;;;;;;;4941523;29;20424;-94
2023/08/05 00:03:17;;;;;;;8.57;5.45;;;;;;;;;;4942976;29;20052;-93
2023/08/05 00:05:45;;;;;;;6.70;5.28;;;;;;;;;;4935656;29;20419;-93
2023/08/05 00:08:17;;;;;;;12.35;5.13;;;;;;;;;;4935629;29;20055;-92
2023/08/05 00:10:47;;;;;;;6.85;4.57;;;;;;;;;;4937083;29;20097;-93
2023/08/05 00:13:15;;;;;;;5.43;4.25;;;;;;;;;;4938656;29;20404;-93
2023/08/05 00:15:44;;;;;;;10.85;5.05;;;;;;;;;;4920981;29;20056;-93
2023/08/05 00:18:11;;;;;;;5.95;4.45;;;;;;;;;;4936351;29;20056;-92
2023/08/05 00:20:41;;;;;;;7.90;6.28;;;;;;;;;;4935314;29;20047;-93
2023/08/05 00:23:08;;;;;;;5.63;4.13;;;;;;;;;;4939906;29;20436;-93
2023/08/05 00:25:38;;;;;;;11.40;5.90;;;;;;;;;;4936277;29;20631;-94
2023/08/05 00:28:05;;;;;;;6.88;5.13;;;;;;;;;;4933832;29;20062;-94
2023/08/05 00:30:35;;;;;;;9.20;5.25;;;;;;;;;;4939635;29;20063;-93
2023/08/05 00:33:04;;;;;;;6.40;5.07;;;;;;;;;;4944326;29;20055;-94
2023/08/05 00:35:31;;;;;;;8.50;5.65;;;;;;;;;;4921304;29;20534;-93
2023/08/05 00:38:01;;;;;;;6.95;5.53;;;;;;;;;;4937011;29;20051;-92
2023/08/05 00:40:28;;;;;;;9.02;5.68;;;;;;;;;;4922110;29;20063;-93
2023/08/05 00:42:55;;;;;;;6.38;4.80;;;;;;;;;;4937966;29;20048;-93
2023/08/05 00:45:23;;;;;;;9.27;5.28;;;;;;;;;;4940879;29;20062;-94
2023/08/05 00:47:54;;;;;;;7.25;5.18;;;;;;;;;;4918943;29;20052;-93
2023/08/05 00:50:24;;;;;;;6.15;4.72;;;;;;;;;;4920142;29;20055;-93
2023/08/05 00:52:53;;;;;;;8.77;5.03;;;;;;;;;;4919409;29;20145;-94
2023/08/05 00:55:21;;;;;;;6.07;5.43;;;;;;;;;;4951832;28;20051;-94
2023/08/05 00:57:48;;;;;;;5.78;4.35;;;;;;;;;;4924903;29;20048;-92
2023/08/05 01:00:15;;;;;;;9.27;5.10;;;;;;;;;;4947861;29;20059;-92
2023/08/05 01:02:45;;;;;;;7.45;5.40;;;;;;;;;;4949855;29;20726;-92
2023/08/05 01:05:13;;;;;;;7.65;5.47;;;;;;;;;;4939487;29;20075;-92
2023/08/05 01:07:45;;;;;;;9.85;6.68;;;;;;;;;;4936618;29;20055;-93
2023/08/05 01:10:13;;;;;;;8.75;5.78;;;;;;;;;;4921968;29;20503;-93
2023/08/05 01:12:42;;;;;;;9.73;6.43;;;;;;;;;;4936080;29;20039;-94
2023/08/05 01:15:10;;;;;;;11.43;6.10;;;;;;;;;;4948812;28;20052;-93
2023/08/05 01:17:38;;;;;;;11.32;6.72;;;;;;;;;;4935038;29;20051;-93
2023/08/05 01:20:10;;;;;;;8.10;4.82;;;;;;;;;;4936718;29;20040;-92
2023/08/05 01:22:43;;;;;;;5.95;5.28;;;;;;;;;;4938536;29;20063;-91
2023/08/05 01:25:27;;;;;;;10.88;6.10;;;;;;;;;;4939606;29;20052;-92
2023/08/05 01:27:57;;;;;;;8.65;4.72;;;;;;;;;;4947614;28;20526;-94
2023/08/05 01:30:26;;;;;;;6.05;4.72;;;;;;;;;;4936660;29;20427;-94
2023/08/05 01:32:54;;;;;;;5.80;4.30;;;;;;;;;;4925145;29;20059;-91
2023/08/05 01:35:22;;;;;;;5.72;5.03;;;;;;;;;;4940900;29;20050;-93
2023/08/05 01:37:55;;;;;;;8.85;4.38;;;;;;;;;;4922595;29;20047;-94
2023/08/05 01:40:28;;;;;;;5.90;5.13;;;;;;;;;;4938699;29;20044;-93
2023/08/05 01:42:56;;;;;;;9.18;5.97;;;;;;;;;;4959126;28;20034;-90
2023/08/05 01:45:26;;;;;;;6.38;5.15;;;;;;;;;;4924586;29;20055;-93
2023/08/05 01:47:53;;;;;;;5.70;4.22;;;;;;;;;;4921069;29;20052;-93
2023/08/05 01:50:23;;;;;;;9.73;5.18;;;;;;;;;;4936196;29;20048;-94
2023/08/05 01:52:51;;;;;;;10.35;6.57;;;;;;;;;;4921605;29;20056;-93
2023/08/05 01:55:19;;;;;;;9.52;5.18;;;;;;;;;;4934311;29;20043;-94
2023/08/05 01:57:50;;;;;;;12.65;5.28;;;;;;;;;;4918502;29;20048;-93
2023/08/05 02:00:20;;;;;;;11.85;5.72;;;;;;;;;;4937327;29;20040;-94
2023/08/05 02:02:48;;;;;;;7.18;5.55;;;;;;;;;;4937507;29;20078;-93
2023/08/05 02:05:15;;;;;;;6.70;4.68;;;;;;;;;;4928164;29;20055;-93
2023/08/05 02:07:45;;;;;;;11.15;5.75;;;;;;;;;;4925016;29;20066;-92
2023/08/05 02:10:12;;;;;;;8.32;5.15;;;;;;;;;;4919659;29;20055;-93
2023/08/05 02:12:40;;;;;;;5.90;4.72;;;;;;;;;;4934126;29;20052;-93
2023/08/05 02:15:09;;;;;;;8.38;4.95;;;;;;;;;;4917713;29;20507;-92
2023/08/05 02:17:37;;;;;;;7.38;4.82;;;;;;;;;;4916239;29;20045;-93
2023/08/05 02:20:08;;;;;;;7.90;5.70;;;;;;;;;;4934844;29;20055;-94
2023/08/05 02:22:35;;;;;;;5.85;4.80;;;;;;;;;;4935454;29;20058;-93
2023/08/05 02:25:03;;;;;;;13.50;6.20;;;;;;;;;;4935345;29;20051;-93
2023/08/05 02:27:30;;;;;;;6.72;4.53;;;;;;;;;;4932724;29;20051;-93
2023/08/05 02:30:00;;;;;;;11.13;5.80;;;;;;;;;;4934231;29;20044;-92
2023/08/05 02:32:31;;;;;;;9.93;4.80;;;;;;;;;;4938234;29;20040;-93
2023/08/05 02:34:59;;;;;;;7.03;4.50;;;;;;;;;;4926694;29;20502;-93
2023/08/05 02:37:26;;;;;;;6.13;4.20;;;;;;;;;;4920695;29;20055;-93
2023/08/05 02:39:56;;;;;;;5.53;4.18;;;;;;;;;;4934406;29;20067;-93
2023/08/05 02:42:23;;;;;;;7.03;5.13;;;;;;;;;;4939295;29;20060;-93
2023/08/05 02:44:51;;;;;;;6.40;4.68;;;;;;;;;;4938204;29;20434;-94
2023/08/05 02:47:18;;;;;;;11.02;5.10;;;;;;;;;;4937408;29;20557;-93
2023/08/05 02:49:47;;;;;;;5.55;4.03;;;;;;;;;;4939990;29;20523;-94
2023/08/05 02:52:14;;;;;;;8.68;4.03;;;;;;;;;;4922802;29;20047;-93
2023/08/05 02:54:42;;;;;;;5.72;4.63;;;;;;;;;;4922362;29;20056;-92
2023/08/05 02:57:09;;;;;;;5.47;3.83;;;;;;;;;;4953717;28;20147;-94
2023/08/05 02:59:37;;;;;;;12.15;5.03;;;;;;;;;;4949572;28;20518;-93
2023/08/05 03:02:06;;;;;;;7.03;5.15;;;;;;;;;;4938199;29;20052;-93
2023/08/05 03:04:36;;;;;;;8.05;5.20;;;;;;;;;;4943353;29;20503;-92
2023/08/05 03:07:05;;;;;;;5.38;4.75;;;;;;;;;;4935908;29;20047;-94
2023/08/05 03:09:35;;;;;;;8.88;4.07;;;;;;;;;;4921590;29;20055;-93
2023/08/05 03:12:04;;;;;;;7.35;6.40;;;;;;;;;;4939353;29;20047;-93
2023/08/05 03:14:33;;;;;;;6.78;5.05;;;;;;;;;;4923755;29;20052;-93
2023/08/05 03:17:03;;;;;;;5.97;4.38;;;;;;;;;;4921871;29;20044;-93
2023/08/05 03:19:31;;;;;;;6.32;4.55;;;;;;;;;;4937016;29;20052;-93
2023/08/05 03:21:58;;;;;;;6.05;5.00;;;;;;;;;;4936198;29;20059;-94
2023/08/05 03:24:28;;;;;;;7.90;5.60;;;;;;;;;;4951153;28;20048;-93
2023/08/05 03:26:57;;;;;;;7.50;5.05;;;;;;;;;;4919832;29;20055;-93
2023/08/05 03:29:25;;;;;;;8.25;6.38;;;;;;;;;;4921660;29;20520;-94
2023/08/05 03:31:57;;;;;;;9.57;5.45;;;;;;;;;;4938852;29;20052;-93
2023/08/05 03:34:29;;;;;;;13.50;6.90;;;;;;;;;;4947281;28;20056;-93
2023/08/05 03:37:00;;;;;;;7.60;4.97;;;;;;;;;;4937550;28;20056;-93
2023/08/05 03:39:30;;;;;;;10.00;5.38;;;;;;;;;;4936756;29;20058;-93
2023/08/05 03:41:58;;;;;;;6.20;4.65;;;;;;;;;;4937500;29;20503;-93
2023/08/05 03:44:25;;;;;;;7.03;5.32;;;;;;;;;;4934831;29;20086;-93
2023/08/05 03:46:54;;;;;;;7.65;4.93;;;;;;;;;;4946736;28;20048;-94
2023/08/05 03:49:24;;;;;;;8.32;4.95;;;;;;;;;;4937106;29;20040;-93
2023/08/05 03:51:54;;;;;;;9.52;4.85;;;;;;;;;;4926306;29;20055;-93
2023/08/05 03:54:21;;;;;;;6.28;4.78;;;;;;;;;;4935116;29;20458;-93
2023/08/05 03:56:52;;;;;;;9.00;4.80;;;;;;;;;;4920425;29;20458;-94
2023/08/05 03:59:22;;;;;;;6.00;3.97;;;;;;;;;;4920742;29;20051;-93
2023/08/05 04:01:52;;;;;;;6.43;4.82;;;;;;;;;;4932954;29;20052;-92
2023/08/05 04:04:20;;;;;;;5.80;4.95;;;;;;;;;;4919542;29;20060;-94
2023/08/05 04:06:47;;;;;;;6.13;4.70;;;;;;;;;;4934423;29;20047;-93
2023/08/05 04:09:19;;;;;;;5.00;4.43;;;;;;;;;;4935476;29;20059;-94
2023/08/05 04:11:48;;;;;;;6.03;4.57;;;;;;;;;;4919833;29;20443;-93
2023/08/05 04:14:20;;;;;;;7.32;4.60;;;;;;;;;;4920204;29;20071;-93
2023/08/05 04:16:48;;;;;;;11.27;4.75;;;;;;;;;;4917528;29;20060;-93
2023/08/05 04:19:18;;;;;;;7.75;5.03;;;;;;;;;;4920815;29;20055;-94
2023/08/05 04:21:52;;;;;;;9.05;5.43;;;;;;;;;;4936029;29;20065;-93
2023/08/05 04:24:23;;;;;;;6.57;5.20;;;;;;;;;;4935552;29;20056;-93
2023/08/05 04:26:51;;;;;;;10.75;5.68;;;;;;;;;;4933235;29;20047;-92
2023/08/05 04:29:22;;;;;;;5.00;3.92;;;;;;;;;;4936864;29;20043;-93
2023/08/05 04:31:50;;;;;;;8.45;4.80;;;;;;;;;;4936541;29;20419;-93
2023/08/05 04:34:17;;;;;;;7.80;4.55;;;;;;;;;;4935802;29;20042;-93
2023/08/05 04:36:49;;;;;;;8.75;5.22;;;;;;;;;;4919040;29;20047;-93
2023/08/05 04:39:19;;;;;;;13.75;5.72;;;;;;;;;;4923192;29;20047;-93
2023/08/05 04:41:47;;;;;;;7.68;5.35;;;;;;;;;;4939343;29;20054;-93
2023/08/05 04:44:18;;;;;;;8.63;6.22;;;;;;;;;;4926351;29;20044;-94
2023/08/05 04:46:46;;;;;;;6.30;5.25;;;;;;;;;;4934632;29;20050;-93
2023/08/05 04:49:16;;;;;;;9.38;6.00;;;;;;;;;;4919657;29;20039;-93
2023/08/05 04:51:47;;;;;;;9.90;5.55;;;;;;;;;;4931536;29;20063;-92
2023/08/05 04:54:18;;;;;;;8.90;7.45;;;;;;;;;;4933482;29;20044;-92
2023/08/05 04:56:46;;;;;;;11.00;7.03;;;;;;;;;;4918809;29;20062;-92
2023/08/05 04:59:13;;;;;;;11.50;7.30;;;;;;;;;;4921487;29;20047;-93
2023/08/05 05:01:41;;;;;;;7.32;6.15;;;;;;;;;;4934689;29;20047;-91
2023/08/05 05:04:12;;;;;;;6.78;5.47;;;;;;;;;;4936343;29;20063;-94
2023/08/05 05:06:40;;;;;;;8.65;5.60;;;;;;;;;;4937089;29;20403;-93
2023/08/05 05:09:07;;;;;;;7.97;6.40;;;;;;;;;;4933366;29;20054;-93
2023/08/05 05:11:34;;;;;;;7.25;5.60;;;;;;;;;;4934469;29;20207;-94
2023/08/05 05:14:06;;;;;;;6.63;5.30;;;;;;;;;;4935074;29;20051;-94
2023/08/05 05:16:33;;;;;;;9.70;7.00;;;;;;;;;;4918544;29;20047;-92
2023/08/05 05:19:00;;;;;;;7.07;5.90;;;;;;;;;;4935831;29;20051;-93
2023/08/05 05:21:32;;;;;;;7.05;5.95;;;;;;;;;;4935115;29;20040;-93
2023/08/05 05:23:59;;;;;;;8.95;6.38;;;;;;;;;;4934215;29;20055;-91
2023/08/05 05:26:29;;;;;;;6.90;5.47;;;;;;;;;;4933613;29;20406;-91
2023/08/05 05:28:56;;;;;;;6.28;5.68;;;;;;;;;;4915524;29;20048;-92
2023/08/05 05:31:24;;;;;;;7.00;5.80;;;;;;;;;;4931189;29;20055;-91
2023/08/05 05:33:53;;;;;;;5.80;5.20;;;;;;;;;;4933534;29;20408;-89
2023/08/05 05:36:21;;;;;;;10.05;6.40;;;;;;;;;;4930836;29;20513;-92
2023/08/05 05:38:52;;;;;;;6.60;5.68;;;;;;;;;;4932196;29;20435;-90
2023/08/05 05:41:19;;;;;;;6.53;5.13;;;;;;;;;;4916213;29;20534;-91
2023/08/05 05:43:50;;;;;;;7.47;5.53;;;;;;;;;;4931671;29;20059;-91
2023/08/05 05:46:19;;;;;;;6.65;5.13;;;;;;;;;;4930627;29;20052;-92
2023/08/05 05:48:47;;;;;;;6.50;4.82;;;;;;;;;;4932648;29;20046;-92
2023/08/05 05:51:14;;;;;;;6.53;5.57;;;;;;;;;;4930672;29;20060;-92
2023/08/05 05:53:44;;;;;;;6.63;4.32;;;;;;;;;;4932210;29;20040;-91
2023/08/05 05:56:13;;;;;;;5.93;4.03;;;;;;;;;;4933547;29;20079;-92
2023/08/05 05:58:40;;;;;;;6.15;5.10;;;;;;;;;;4933606;29;20062;-91
2023/08/05 06:01:07;;;;;;;4.78;3.90;;;;;;;;;;4928127;29;20048;-93
2023/08/05 06:03:37;;;;;;;6.53;4.18;;;;;;;;;;4915664;29;20076;-93
2023/08/05 06:06:04;;;;;;;8.68;6.50;;;;;;;;;;4948995;28;20047;-92
2023/08/05 06:08:33;;;;;;;5.43;4.93;;;;;;;;;;4936093;29;20055;-92
2023/08/05 06:11:02;;;;;;;5.75;5.15;;;;;;;;;;4919919;29;20043;-91
2023/08/05 06:13:31;;;;;;;7.30;4.78;;;;;;;;;;4949954;28;20056;-92
2023/08/05 06:16:00;;;;;;;7.68;4.75;;;;;;;;;;4931568;29;20067;-92
2023/08/05 06:18:28;;;;;;;5.70;4.75;;;;;;;;;;4935285;29;20055;-92
2023/08/05 06:20:55;;;;;;;5.78;4.30;;;;;;;;;;4936993;29;20130;-90
2023/08/05 06:23:22;;;;;;;4.95;4.35;;;;;;;;;;4935557;29;20047;-92
2023/08/05 06:25:50;;;;;;;5.47;4.45;;;;;;;;;;4934040;29;20055;-92
2023/08/05 06:28:19;;;;;;;8.13;3.95;;;;;;;;;;4934718;29;20443;-92
2023/08/05 06:30:48;;;;;;;4.97;3.95;;;;;;;;;;4935650;29;20055;-93
2023/08/05 06:33:16;;;;;;;6.38;3.95;;;;;;;;;;4934340;29;20052;-92
2023/08/05 06:35:43;;;;;;;5.38;4.18;;;;;;;;;;4935114;29;20055;-92
2023/08/05 06:38:11;;;;;;;5.70;4.07;;;;;;;;;;4919039;29;20071;-91
2023/08/05 06:40:41;;;;;;;6.45;4.05;;;;;;;;;;4936870;29;20054;-92
2023/08/05 06:43:09;;;;;;;5.20;3.95;;;;;;;;;;4931624;29;20039;-93
2023/08/05 06:45:36;;;;;;;3.95;3.55;;;;;;;;;;4920006;29;20427;-92
2023/08/05 06:48:06;;;;;;;4.35;3.72;;;;;;;;;;4922679;29;20056;-92
2023/08/05 06:50:34;;;;;;;4.78;4.00;;;;;;;;;;4924164;29;20435;-91
2023/08/05 06:53:01;;;;;;;6.40;3.75;;;;;;;;;;4951896;28;20063;-93
2023/08/05 06:55:29;;;;;;;5.03;3.40;;;;;;;;;;4941429;29;20438;-92
2023/08/05 06:57:58;;;;;;;4.07;3.33;;;;;;;;;;4953781;28;20055;-90
2023/08/05 07:00:28;;;;;;;5.72;4.07;;;;;;;;;;4961627;29;20046;-91
2023/08/05 07:02:57;;;;;;;4.30;3.75;;;;;;;;;;4946598;29;20062;-91
2023/08/05 07:05:26;;;;;;;5.78;3.92;;;;;;;;;;4947359;28;20064;-92
2023/08/05 07:07:53;;;;;;;5.28;3.08;;;;;;;;;;4919087;29;20534;-92
2023/08/05 07:10:20;;;;;;;4.65;3.05;;;;;;;;;;4916930;29;20058;-92
2023/08/05 07:12:50;;;;;;;3.15;2.85;;;;;;;;;;4918767;29;20059;-92
2023/08/05 07:15:17;;;;;;;4.07;2.70;;;;;;;;;;4918694;29;20047;-91
2023/08/05 07:17:44;;;;;;;2.58;2.17;;;;;;;;;;4930333;28;20070;-92
2023/08/05 07:20:12;;;;;;;3.08;2.50;;;;;;;;;;4931886;29;20059;-91
2023/08/05 07:22:41;;;;;;;3.72;2.30;;;;;;;;;;4930189;29;20052;-92
2023/08/05 07:25:11;;;;;;;3.88;2.22;;;;;;;;;;4934785;29;20581;-92
2023/08/05 07:27:39;;;;;;;2.90;2.15;;;;;;;;;;4933061;29;20060;-93
2023/08/05 07:30:10;;;;;;;2.67;2.22;;;;;;;;;;4934358;29;20052;-92
2023/08/05 07:32:37;;;;;;;2.72;2.10;;;;;;;;;;4931265;29;20052;-92
2023/08/05 07:35:07;;;;;;;4.22;2.97;;;;;;;;;;4934662;29;20066;-93
2023/08/05 07:37:35;;;;;;;3.13;2.15;;;;;;;;;;4933621;29;20056;-92
2023/08/05 07:40:12;;;;;;;3.92;2.30;;;;;;;;;;4927380;29;20063;-91
2023/08/05 07:42:42;;;;;;;4.40;2.45;;;;;;;;;;4944077;29;20048;-92
2023/08/05 07:45:14;;;;;;;3.17;2.35;;;;;;;;;;4935100;29;20062;-92
2023/08/05 07:47:41;;;;;;;4.57;3.15;;;;;;;;;;4934678;29;20059;-92
2023/08/05 07:50:10;;;;;;;3.25;2.95;;;;;;;;;;4934509;29;20047;-93
2023/08/05 07:52:37;;;;;;;3.50;2.72;;;;;;;;;;4946426;28;20537;-91
2023/08/05 07:55:06;;;;;;;4.00;2.63;;;;;;;;;;4916541;29;20059;-92
2023/08/05 07:57:36;;;;;;;4.07;2.53;;;;;;;;;;4919530;29;20052;-93
2023/08/05 08:00:05;;;;;;;4.10;2.80;;;;;;;;;;4936914;29;20059;-92
2023/08/05 08:02:41;;;;;;;2.97;2.20;;;;;;;;;;4933810;29;20050;-93
2023/08/05 08:05:09;;;;;;;5.13;2.53;;;;;;;;;;4919893;29;20056;-93
2023/08/05 08:07:38;;;;;;;6.68;2.80;;;;;;;;;;4934113;29;20048;-92
2023/08/05 08:10:08;;;;;;;3.42;2.63;;;;;;;;;;4938032;29;20056;-93
2023/08/05 08:12:38;;;;;;;4.15;2.90;;;;;;;;;;4940354;29;20051;-93
2023/08/05 08:15:07;;;;;;;4.13;2.83;;;;;;;;;;4936172;29;20062;-92
2023/08/05 08:17:36;;;;;;;4.65;2.55;;;;;;;;;;4918206;29;20052;-93
2023/08/05 08:20:04;;;;;;;6.68;3.75;;;;;;;;;;4940130;29;20039;-92
2023/08/05 08:22:32;;;;;;;4.35;3.05;;;;;;;;;;4940210;29;20054;-92
2023/08/05 08:24:59;;;;;;;3.97;3.60;;;;;;;;;;4952292;28;20052;-91
2023/08/05 08:27:28;;;;;;;3.00;2.70;;;;;;;;;;4914123;29;20052;-92
2023/08/05 08:29:55;;;;;;;2.80;2.35;;;;;;;;;;4931329;29;20058;-95
2023/08/05 08:32:23;;;;;;;3.33;2.25;;;;;;;;;;4931944;29;20052;-92
2023/08/05 08:34:50;;;;;;;2.58;2.17;;;;;;;;;;4933010;29;20048;-92
2023/08/05 08:37:17;;;;;;;3.97;2.47;;;;;;;;;;4933724;28;20055;-93
2023/08/05 08:39:45;;;;;;;2.92;2.05;;;;;;;;;;4921395;29;20056;-93
2023/08/05 08:42:12;;;;;;;4.18;2.78;;;;;;;;;;4920109;29;20051;-93
2023/08/05 08:44:44;;;;;;;4.75;2.47;;;;;;;;;;4929796;29;20055;-93
2023/08/05 08:47:12;;;;;;;2.30;1.80;;;;;;;;;;4920952;29;20048;-92
2023/08/05 08:49:40;;;;;;;3.78;2.28;;;;;;;;;;4952371;29;20043;-93
2023/08/05 08:52:12;;;;;;;2.47;2.05;;;;;;;;;;4933343;29;20063;-92
2023/08/05 08:54:42;;;;;;;4.40;2.70;;;;;;;;;;4935047;29;20058;-93
2023/08/05 08:57:13;;;;;;;3.17;2.50;;;;;;;;;;4934329;29;20044;-92
2023/08/05 08:59:40;;;;;;;3.25;2.33;;;;;;;;;;4918866;29;20051;-93
2023/08/05 09:02:17;;;;;;;2.22;1.98;;;;;;;;;;4937883;29;20054;-92
2023/08/05 09:04:46;;;;;;;3.80;2.20;;;;;;;;;;4939300;29;20048;-93
2023/08/05 09:07:14;;;;;;;5.35;1.73;;;;;;;;;;4935893;29;20062;-94
2023/08/05 09:09:47;;;;;;;5.72;2.28;;;;;;;;;;4948021;28;20063;-93
2023/08/05 09:12:14;;;;;;;4.47;1.98;;;;;;;;;;4935881;29;20048;-93
2023/08/05 09:14:42;;;;;;;5.47;2.38;;;;;;;;;;4918281;29;20055;-93
2023/08/05 09:17:15;;;;;;;5.70;2.40;;;;;;;;;;4933474;29;20055;-92
2023/08/05 09:19:44;;;;;;;3.60;2.22;;;;;;;;;;4931676;29;20050;-92
2023/08/05 09:22:12;;;;;;;5.05;2.53;;;;;;;;;;4918113;29;20051;-93
2023/08/05 09:24:41;;;;;;;4.13;2.35;;;;;;;;;;4945201;28;20048;-92
2023/08/05 09:27:08;;;;;;;2.25;1.98;;;;;;;;;;4937054;28;20062;-93
2023/08/05 09:29:36;;;;;;;4.22;3.40;;;;;;;;;;4932799;29;20063;-92
2023/08/05 09:32:05;;;;;;;3.35;2.22;;;;;;;;;;4918402;29;20139;-93
2023/08/05 09:34:35;;;;;;;4.60;2.45;;;;;;;;;;4931048;29;20051;-93
2023/08/05 09:37:03;;;;;;;1.45;1.23;;;;;;;;;;4933856;29;20048;-92
2023/08/05 09:39:45;;;;;;;6.20;2.10;;;;;;;;;;4916551;29;20106;-92
2023/08/05 09:42:23;;;;;;;2.40;1.90;;;;;;;;;;4944346;28;20055;-92
2023/08/05 09:44:54;;;;;;;3.38;2.10;;;;;;;;;;4917670;29;20056;-93
2023/08/05 09:47:27;;;;;;;3.55;2.15;;;;;;;;;;4933737;29;20066;-92
2023/08/05 09:50:04;;;;;;;2.78;1.52;;;;;;;;;;4910591;29;20535;-91
2023/08/05 09:52:33;;;;;;;2.38;1.85;;;;;;;;;;4933117;29;20051;-92
2023/08/05 09:55:11;;;;;;;3.03;2.28;;;;;;;;;;4934941;29;20510;-91
2023/08/05 09:57:41;;;;;;;2.88;1.73;;;;;;;;;;4933191;29;20063;-92
2023/08/05 10:00:13;;;;;;;2.05;1.77;;;;;;;;;;4933139;29;20063;-92
2023/08/05 10:02:43;;;;;;;1.95;1.75;;;;;;;;;;4921222;29;20059;-92
2023/08/05 10:05:15;;;;;;;2.28;1.65;;;;;;;;;;4918599;29;20059;-92
2023/08/05 10:07:47;;;;;;;2.67;2.00;;;;;;;;;;4932865;29;20058;-92
2023/08/05 10:10:17;;;;;;;4.00;2.28;;;;;;;;;;4928098;29;20063;-91
2023/08/05 10:12:47;;;;;;;2.33;2.10;;;;;;;;;;4932602;29;20048;-93
2023/08/05 10:15:21;;;;;;;3.08;2.00;;;;;;;;;;4932550;29;20056;-91
2023/08/05 10:17:49;;;;;;;1.65;1.45;;;;;;;;;;4934184;29;20051;-92
2023/08/05 10:20:18;;;;;;;3.85;2.10;;;;;;;;;;4924011;29;20056;-93
2023/08/05 10:23:02;;;;;;;2.17;1.77;;;;;;;;;;4931821;29;20063;-92
2023/08/05 10:25:40;;;;;;;4.05;2.03;;;;;;;;;;4931371;29;20133;-93
2023/08/05 10:28:07;;;;;;;2.72;1.65;;;;;;;;;;4933078;29;20056;-91
2023/08/05 10:30:42;;;;;;;3.30;2.10;;;;;;;;;;4933075;29;20051;-92
2023/08/05 10:33:12;;;;;;;3.03;2.08;;;;;;;;;;4918189;29;20422;-92
2023/08/05 10:35:43;;;;;;;2.63;1.45;;;;;;;;;;4933143;29;20068;-90
2023/08/05 10:38:12;;;;;;;2.60;1.83;;;;;;;;;;4931505;29;20426;-92
2023/08/05 10:40:42;;;;;;;1.70;1.60;;;;;;;;;;4934329;29;20081;-92
2023/08/05 10:43:10;;;;;;;2.33;1.80;;;;;;;;;;4936913;29;20047;-92
2023/08/05 10:45:41;;;;;;;2.28;1.70;;;;;;;;;;4937314;29;20055;-91
2023/08/05 10:48:10;;;;;;;5.65;2.30;;;;;;;;;;4936191;29;20562;-91
2023/08/05 10:50:39;;;;;;;3.08;1.60;;;;;;;;;;4928601;29;20055;-91
2023/08/05 10:53:11;;;;;;;1.63;1.40;;;;;;;;;;4932157;29;20647;-91
2023/08/05 10:55:47;;;;;;;3.60;1.58;;;;;;;;;;4934261;29;20055;-92
2023/08/05 10:58:14;;;;;;;2.85;1.52;;;;;;;;;;4936805;29;20051;-94
2023/08/05 11:00:44;;;;;;;2.10;1.63;;;;;;;;;;4936338;29;20055;-92
2023/08/05 11:03:42;;;;;;;1.60;1.40;;;;;;;;;;4918933;29;20056;-91
2023/08/05 11:06:11;;;;;;;2.03;1.63;;;;;;;;;;4914454;29;20055;-92
2023/08/05 11:08:41;;;;;;;2.72;1.75;;;;;;;;;;4951452;28;20055;-92
2023/08/05 11:11:09;;;;;;;2.25;1.58;;;;;;;;;;4950988;28;20052;-92
2023/08/05 11:13:43;;;;;;;3.17;1.52;;;;;;;;;;4937069;29;20039;-92
2023/08/05 11:16:11;;;;;;;1.95;1.63;;;;;;;;;;4935540;29;20071;-92
2023/08/05 11:18:40;;;;;;;2.05;1.52;;;;;;;;;;4936096;29;20506;-93
2023/08/05 11:21:10;;;;;;;2.08;1.30;;;;;;;;;;4942588;29;20055;-92
2023/08/05 11:23:40;;;;;;;2.65;1.70;;;;;;;;;;4933242;29;20078;-92
2023/08/05 11:26:10;;;;;;;2.78;1.73;;;;;;;;;;4926330;29;20058;-92
2023/08/05 11:28:43;;;;;;;2.83;1.55;;;;;;;;;;4940640;29;20044;-92
2023/08/05 11:31:10;;;;;;;;;;;;;;;;;;4953349;28;20056;-92
2023/08/05 11:33:48;;;;;;;2.25;1.70;;;;;;;;;;4932595;29;19930;-92
2023/08/05 11:36:15;;;;;;;3.97;1.60;;;;;;;;;;4926448;29;20066;-92
2023/08/05 11:38:45;;;;;;;2.25;1.35;;;;;;;;;;4918497;29;20056;-92
2023/08/05 11:41:12;;;;;;;4.03;1.85;;;;;;;;;;4935566;29;20048;-92
2023/08/05 11:43:41;;;;;;;1.75;1.45;;;;;;;;;;4934314;29;20223;-91
2023/08/05 11:46:13;;;;;;;1.30;1.20;;;;;;;;;;4928084;29;20059;-92
2023/08/05 11:48:40;;;;;;;1.50;1.30;;;;;;;;;;4916875;29;20060;-92
2023/08/05 11:51:08;;;;;;;2.65;1.45;;;;;;;;;;4935186;29;20078;-92
2023/08/05 11:53:49;;;;;;;2.15;1.95;;;;;;;;;;4922447;29;20059;-92
2023/08/05 11:56:23;;;;;;;3.33;1.35;;;;;;;;;;4919788;29;20156;-92
2023/08/05 11:58:50;;;;;;;3.47;1.52;;;;;;;;;;4936144;28;20055;-92
2023/08/05 12:01:20;;;;;;;1.90;1.35;;;;;;;;;;4917769;29;20059;-92
2023/08/05 12:03:50;;;;;;;3.70;1.55;;;;;;;;;;4934549;29;20400;-92
2023/08/05 12:06:19;;;;;;;3.33;1.38;;;;;;;;;;4934302;29;20426;-93
2023/08/05 12:08:46;;;;;;;1.88;1.60;;;;;;;;;;4919230;29;20064;-92
2023/08/05 12:11:17;;;;;;;1.55;1.20;;;;;;;;;;4920305;29;20530;-92
2023/08/05 12:13:45;;;;;;;1.92;1.70;;;;;;;;;;4941544;29;20050;-93
2023/08/05 12:16:16;;;;;;;1.52;1.30;;;;;;;;;;4925870;29;20048;-92
2023/08/05 12:18:44;;;;;;;2.03;1.73;;;;;;;;;;4934812;29;20051;-93
2023/08/05 12:21:11;;;;;;;2.95;2.03;;;;;;;;;;4934922;29;20530;-93
2023/08/05 12:23:41;;;;;;;2.50;1.70;;;;;;;;;;4935371;29;20411;-91
2023/08/05 12:26:08;;;;;;;2.38;1.65;;;;;;;;;;4935411;29;20071;-92
2023/08/05 12:28:40;;;;;;;4.07;1.23;;;;;;;;;;4925871;29;20073;-94
2023/08/05 12:31:08;;;;;;;2.10;1.43;;;;;;;;;;4951471;28;20063;-93
2023/08/05 12:33:37;;;;;;;2.28;1.35;;;;;;;;;;4936027;29;20058;-92
2023/08/05 12:36:04;;;;;;;1.92;1.45;;;;;;;;;;4936522;29;20062;-92
2023/08/05 12:38:34;;;;;;;2.25;1.52;;;;;;;;;;4919926;29;20047;-93
2023/08/05 12:41:01;;;;;;;2.25;1.50;;;;;;;;;;4936335;29;20058;-93
2023/08/05 12:43:33;;;;;;;1.60;1.50;;;;;;;;;;4935681;29;20058;-94
2023/08/05 12:46:02;;;;;;;7.88;1.70;;;;;;;;;;4912101;29;20078;-92
2023/08/05 12:48:32;;;;;;;2.45;1.40;;;;;;;;;;4923281;29;20060;-94
2023/08/05 12:50:59;;;;;;;2.08;1.65;;;;;;;;;;4940353;29;20047;-92
2023/08/05 12:53:28;;;;;;;1.83;1.42;;;;;;;;;;4935814;29;20055;-93
2023/08/05 12:55:56;;;;;;;1.98;1.67;;;;;;;;;;4917420;29;20530;-93
2023/08/05 12:58:26;;;;;;;7.05;1.80;;;;;;;;;;4936570;29;20067;-93
2023/08/05 13:00:53;;;;;;;2.17;1.58;;;;;;;;;;4938161;29;20047;-93
2023/08/05 13:03:29;;;;;;;2.75;1.73;;;;;;;;;;4918514;29;20047;-91
2023/08/05 13:05:57;;;;;;;4.55;1.50;;;;;;;;;;4936089;29;20059;-94
2023/08/05 13:08:24;;;;;;;3.65;1.80;;;;;;;;;;4951912;28;20080;-93
2023/08/05 13:10:55;;;;;;;3.47;1.75;;;;;;;;;;4941936;29;20048;-94
2023/08/05 13:13:24;;;;;;;2.55;1.60;;;;;;;;;;4940326;29;20051;-91
2023/08/05 13:15:51;;;;;;;2.05;1.58;;;;;;;;;;4948325;29;20051;-91
2023/08/05 13:18:21;;;;;;;1.55;1.45;;;;;;;;;;4918427;29;20055;-91
2023/08/05 13:20:50;;;;;;;2.08;1.88;;;;;;;;;;4933297;29;20055;-92
2023/08/05 13:23:18;;;;;;;2.78;1.70;;;;;;;;;;4933207;29;20048;-92
2023/08/05 13:25:45;;;;;;;1.98;1.80;;;;;;;;;;4933668;29;20133;-91
2023/08/05 13:28:17;;;;;;;2.20;1.50;;;;;;;;;;4935248;29;20063;-92
2023/08/05 13:30:45;;;;;;;1.27;1.17;;;;;;;;;;4933379;29;20059;-91
2023/08/05 13:33:12;;;;;;;1.58;1.35;;;;;;;;;;4922316;29;20059;-90
2023/08/05 13:35:47;;;;;;;2.88;1.63;;;;;;;;;;4945804;28;20059;-93
2023/08/05 13:38:19;;;;;;;1.45;1.35;;;;;;;;;;4917253;29;20067;-92
2023/08/05 13:40:50;;;;;;;1.87;1.73;;;;;;;;;;4916532;29;20050;-92
2023/08/05 13:43:17;;;;;;;2.38;1.05;;;;;;;;;;4929912;29;20059;-92
2023/08/05 13:45:48;;;;;;;2.55;1.30;;;;;;;;;;4926479;29;20055;-92
2023/08/05 13:48:16;;;;;;;1.73;1.20;;;;;;;;;;4909111;29;20044;-92
2023/08/05 13:50:43;;;;;;;1.45;1.35;;;;;;;;;;4917089;29;20047;-92
2023/08/05 13:53:11;;;;;;;1.92;1.73;;;;;;;;;;4916749;29;20055;-91
2023/08/05 13:55:40;;;;;;;3.53;1.35;;;;;;;;;;4914731;29;20422;-91
2023/08/05 13:58:07;;;;;;;1.65;1.30;;;;;;;;;;4931872;29;20533;-92
2023/08/05 14:00:38;;;;;;;3.40;1.45;;;;;;;;;;4930983;29;20055;-92
2023/08/05 14:03:08;;;;;;;8.52;1.67;;;;;;;;;;4922782;29;20066;-91
2023/08/05 14:05:35;;;;;;;1.65;1.45;;;;;;;;;;4931665;29;20058;-92
2023/08/05 14:08:03;;;;;;;2.63;1.35;;;;;;;;;;4931449;29;20051;-92
2023/08/05 14:10:30;;;;;;;2.58;2.20;;;;;;;;;;4928706;29;20055;-92
2023/08/05 14:13:02;;;;;;;2.15;2.03;;;;;;;;;;4932190;29;20622;-90
2023/08/05 14:15:34;;;;;;;3.65;1.88;;;;;;;;;;4945390;28;20040;-91
2023/08/05 14:18:01;;;;;;;3.88;2.03;;;;;;;;;;4933166;29;20050;-90
2023/08/05 14:20:29;;;;;;;2.13;1.33;;;;;;;;;;4932074;29;20059;-91
2023/08/05 14:22:56;;;;;;;1.83;1.50;;;;;;;;;;4916540;29;20113;-91
2023/08/05 14:25:23;;;;;;;1.63;1.52;;;;;;;;;;4928217;29;20044;-91
2023/08/05 14:27:57;;;;;;;2.10;1.90;;;;;;;;;;4916357;29;20062;-92
2023/08/05 14:30:26;;;;;;;1.73;1.58;;;;;;;;;;4919200;29;20482;-91
2023/08/05 14:32:53;;;;;;;2.28;1.80;;;;;;;;;;4934819;29;20541;-92
2023/08/05 14:35:21;;;;;;;2.00;1.80;;;;;;;;;;4934983;29;20529;-92
2023/08/05 14:37:50;;;;;;;2.58;2.05;;;;;;;;;;4919817;29;20063;-91
2023/08/05 14:40:18;;;;;;;27.60;3.78;;;;;;;;;;4935484;29;20082;-91
2023/08/05 14:42:47;;;;;;;2.25;1.70;;;;;;;;;;4931120;29;20052;-92
2023/08/05 14:45:17;;;;;;;2.90;2.22;;;;;;;;;;4949514;28;20055;-91
2023/08/05 14:47:48;;;;;;;2.45;2.22;;;;;;;;;;4951308;28;20060;-91
2023/08/05 14:50:15;;;;;;;2.55;1.98;;;;;;;;;;4935824;29;20064;-92
2023/08/05 14:52:46;;;;;;;2.05;1.67;;;;;;;;;;4935957;29;20054;-92
2023/08/05 14:55:13;;;;;;;2.28;2.08;;;;;;;;;;4935835;29;20427;-91